sensor_id;sensor_type;location;lat;lon;timestamp;pressure;altitude;pressure_sealevel;temperature;humidity
788;BME280;16074;42.708;23.312;2023-10-31T00:02:01;141409.28;;;12.83;100.00
788;BME280;16074;42.708;23.312;2023-10-31T00:04:30;141422.59;;;12.89;100.00
788;BME280;16074;42.708;23.312;2023-10-31T00:06:58;141421.34;;;12.88;100.00
788;BME280;16074;42.708;23.312;2023-10-31T00:09:26;141322.44;;;12.47;100.00
788;BME280;16074;42.708;23.312;2023-10-31T00:11:55;141295.88;;;12.36;100.00
788;BME280;16074;42.708;23.312;2023-10-31T00:14:24;141341.75;;;12.55;100.00
788;BME280;16074;42.708;23.312;2023-10-31T00:16:57;141358.63;;;12.62;100.00
788;BME280;16074;42.708;23.312;2023-10-31T00:19:26;141375.53;;;12.69;100.00
788;BME280;16074;42.708;23.312;2023-10-31T00:21:54;141352.56;;;12.60;100.00
788;BME280;16074;42.708;23.312;2023-10-31T00:24:22;141376.72;;;12.70;100.00
788;BME280;16074;42.708;23.312;2023-10-31T00:26:51;141305.53;;;12.40;100.00
788;BME280;16074;42.708;23.312;2023-10-31T00:29:19;141252.47;;;12.18;100.00
788;BME280;16074;42.708;23.312;2023-10-31T00:31:49;141235.63;;;12.11;100.00
788;BME280;16074;42.708;23.312;2023-10-31T00:34:17;141211.50;;;12.01;100.00
788;BME280;16074;42.708;23.312;2023-10-31T00:36:45;141182.53;;;11.89;100.00
788;BME280;16074;42.708;23.312;2023-10-31T00:39:14;141224.75;;;12.07;100.00
788;BME280;16074;42.708;23.312;2023-10-31T00:41:44;141210.25;;;12.01;100.00
788;BME280;16074;42.708;23.312;2023-10-31T00:44:12;141162.06;;;11.81;100.00
788;BME280;16074;42.708;23.312;2023-10-31T00:46:41;141158.44;;;11.80;100.00
788;BME280;16074;42.708;23.312;2023-10-31T00:49:12;141189.78;;;11.92;100.00
788;BME280;16074;42.708;23.312;2023-10-31T00:51:40;141180.13;;;11.88;100.00
788;BME280;16074;42.708;23.312;2023-10-31T00:54:08;141204.25;;;11.98;100.00
788;BME280;16074;42.708;23.312;2023-10-31T00:56:36;141183.72;;;11.90;100.00
788;BME280;16074;42.708;23.312;2023-10-31T00:59:05;141175.31;;;11.87;100.00
788;BME280;16074;42.708;23.312;2023-10-31T01:01:33;141169.31;;;11.84;100.00
788;BME280;16074;42.708;23.312;2023-10-31T01:04:02;141158.44;;;11.80;100.00
788;BME280;16074;42.708;23.312;2023-10-31T01:06:31;141178.97;;;11.88;100.00
788;BME280;16074;42.708;23.312;2023-10-31T01:09:00;141147.59;;;11.75;100.00
788;BME280;16074;42.708;23.312;2023-10-31T01:11:29;141151.19;;;11.77;100.00
788;BME280;16074;42.708;23.312;2023-10-31T01:13:57;141163.25;;;11.82;100.00
788;BME280;16074;42.708;23.312;2023-10-31T01:16:26;141164.47;;;11.82;100.00
788;BME280;16074;42.708;23.312;2023-10-31T01:18:54;141137.94;;;11.71;100.00
788;BME280;16074;42.708;23.312;2023-10-31T01:21:22;141168.06;;;11.84;100.00
788;BME280;16074;42.708;23.312;2023-10-31T01:23:52;141129.50;;;11.68;100.00
788;BME280;16074;42.708;23.312;2023-10-31T01:26:20;141087.28;;;11.50;100.00
788;BME280;16074;42.708;23.312;2023-10-31T01:28:48;141119.84;;;11.64;100.00
788;BME280;16074;42.708;23.312;2023-10-31T01:31:16;141162.06;;;11.81;100.00
788;BME280;16074;42.708;23.312;2023-10-31T01:33:45;141105.44;;;11.58;100.00
788;BME280;16074;42.708;23.312;2023-10-31T01:36:14;141098.19;;;11.55;100.00
788;BME280;16074;42.708;23.312;2023-10-31T01:38:42;141131.91;;;11.69;100.00
788;BME280;16074;42.708;23.312;2023-10-31T01:41:12;141168.06;;;11.84;100.00
788;BME280;16074;42.708;23.312;2023-10-31T01:43:41;141143.97;;;11.74;100.00
788;BME280;16074;42.708;23.312;2023-10-31T01:46:09;141165.66;;;11.83;100.00
788;BME280;16074;42.708;23.312;2023-10-31T01:48:38;141142.78;;;11.73;100.00
788;BME280;16074;42.708;23.312;2023-10-31T01:51:06;141190.97;;;11.93;100.00
788;BME280;16074;42.708;23.312;2023-10-31T01:53:35;141197.03;;;11.95;100.00
788;BME280;16074;42.708;23.312;2023-10-31T01:56:05;141195.78;;;11.95;100.00
788;BME280;16074;42.708;23.312;2023-10-31T01:58:36;141205.44;;;11.99;100.00
788;BME280;16074;42.708;23.312;2023-10-31T02:01:05;141215.09;;;12.03;100.00
788;BME280;16074;42.708;23.312;2023-10-31T02:03:34;141152.44;;;11.77;100.00
788;BME280;16074;42.708;23.312;2023-10-31T02:06:03;141165.66;;;11.83;100.00
788;BME280;16074;42.708;23.312;2023-10-31T02:08:31;141183.72;;;11.90;100.00
788;BME280;16074;42.708;23.312;2023-10-31T02:11:00;141188.56;;;11.92;100.00
788;BME280;16074;42.708;23.312;2023-10-31T02:13:28;141197.03;;;11.95;100.00
788;BME280;16074;42.708;23.312;2023-10-31T02:15:58;141122.25;;;11.65;100.00
788;BME280;16074;42.708;23.312;2023-10-31T02:18:27;141154.84;;;11.78;100.00
788;BME280;16074;42.708;23.312;2023-10-31T02:20:55;141159.66;;;11.80;100.00
788;BME280;16074;42.708;23.312;2023-10-31T02:23:25;141171.72;;;11.85;100.00
788;BME280;16074;42.708;23.312;2023-10-31T02:25:55;141174.13;;;11.86;100.00
788;BME280;16074;42.708;23.312;2023-10-31T02:28:23;141128.31;;;11.67;100.00
788;BME280;16074;42.708;23.312;2023-10-31T02:30:54;141159.66;;;11.80;100.00
788;BME280;16074;42.708;23.312;2023-10-31T02:33:41;141150.00;;;11.76;100.00
788;BME280;16074;42.708;23.312;2023-10-31T02:36:09;141147.59;;;11.75;100.00
788;BME280;16074;42.708;23.312;2023-10-31T02:38:39;141163.25;;;11.82;100.00
788;BME280;16074;42.708;23.312;2023-10-31T02:41:07;141159.66;;;11.80;100.00
788;BME280;16074;42.708;23.312;2023-10-31T02:43:36;141172.91;;;11.86;100.00
788;BME280;16074;42.708;23.312;2023-10-31T02:46:05;141171.72;;;11.85;100.00
788;BME280;16074;42.708;23.312;2023-10-31T02:48:33;141176.53;;;11.87;100.00
788;BME280;16074;42.708;23.312;2023-10-31T02:51:07;141171.72;;;11.85;100.00
788;BME280;16074;42.708;23.312;2023-10-31T02:53:35;141176.53;;;11.87;100.00
788;BME280;16074;42.708;23.312;2023-10-31T02:56:07;141160.84;;;11.81;100.00
788;BME280;16074;42.708;23.312;2023-10-31T02:58:36;141164.47;;;11.82;100.00
788;BME280;16074;42.708;23.312;2023-10-31T03:01:04;141142.78;;;11.73;100.00
788;BME280;16074;42.708;23.312;2023-10-31T03:03:32;141140.38;;;11.72;100.00
788;BME280;16074;42.708;23.312;2023-10-31T03:06:01;141135.53;;;11.70;100.00
788;BME280;16074;42.708;23.312;2023-10-31T03:08:29;141129.50;;;11.68;100.00
788;BME280;16074;42.708;23.312;2023-10-31T03:10:57;141103.00;;;11.57;100.00
788;BME280;16074;42.708;23.312;2023-10-31T03:13:27;141117.44;;;11.63;100.00
788;BME280;16074;42.708;23.312;2023-10-31T03:15:55;141098.19;;;11.55;100.00
788;BME280;16074;42.708;23.312;2023-10-31T03:18:23;141082.44;;;11.48;100.00
788;BME280;16074;42.708;23.312;2023-10-31T03:20:52;141076.44;;;11.46;100.00
788;BME280;16074;42.708;23.312;2023-10-31T03:23:20;141066.78;;;11.42;100.00
788;BME280;16074;42.708;23.312;2023-10-31T03:25:49;141061.97;;;11.40;100.00
788;BME280;16074;42.708;23.312;2023-10-31T03:28:19;141049.91;;;11.35;100.00
788;BME280;16074;42.708;23.312;2023-10-31T03:30:51;141019.81;;;11.22;100.00
788;BME280;16074;42.708;23.312;2023-10-31T03:33:19;141010.16;;;11.18;100.00
788;BME280;16074;42.708;23.312;2023-10-31T03:35:48;140995.72;;;11.12;100.00
788;BME280;16074;42.708;23.312;2023-10-31T03:38:16;140951.16;;;10.94;100.00
788;BME280;16074;42.708;23.312;2023-10-31T03:40:44;140947.50;;;10.92;100.00
788;BME280;16074;42.708;23.312;2023-10-31T03:43:13;140933.06;;;10.86;100.00
788;BME280;16074;42.708;23.312;2023-10-31T03:45:41;140919.81;;;10.81;100.00
788;BME280;16074;42.708;23.312;2023-10-31T03:48:11;140893.31;;;10.70;100.00
788;BME280;16074;42.708;23.312;2023-10-31T03:50:39;140859.59;;;10.56;100.00
788;BME280;16074;42.708;23.312;2023-10-31T03:53:07;140847.53;;;10.51;100.00
788;BME280;16074;42.708;23.312;2023-10-31T03:55:36;140794.59;;;10.29;100.00
788;BME280;16074;42.708;23.312;2023-10-31T03:58:04;140825.91;;;10.42;100.00
788;BME280;16074;42.708;23.312;2023-10-31T04:00:32;140821.09;;;10.40;100.00
788;BME280;16074;42.708;23.312;2023-10-31T04:03:01;140829.50;;;10.44;100.00
788;BME280;16074;42.708;23.312;2023-10-31T04:05:30;140784.97;;;10.25;100.00
788;BME280;16074;42.708;23.312;2023-10-31T04:07:59;140794.59;;;10.29;100.00
788;BME280;16074;42.708;23.312;2023-10-31T04:10:27;140782.56;;;10.24;100.00
788;BME280;16074;42.708;23.312;2023-10-31T04:12:55;140795.78;;;10.30;100.00
788;BME280;16074;42.708;23.312;2023-10-31T04:15:24;140806.66;;;10.34;100.00
788;BME280;16074;42.708;23.312;2023-10-31T04:17:52;140790.97;;;10.28;100.00
788;BME280;16074;42.708;23.312;2023-10-31T04:20:20;140758.47;;;10.14;100.00
788;BME280;16074;42.708;23.312;2023-10-31T04:22:50;140739.22;;;10.06;100.00
788;BME280;16074;42.708;23.312;2023-10-31T04:25:18;140740.44;;;10.07;100.00
788;BME280;16074;42.708;23.312;2023-10-31T04:27:46;140770.53;;;10.19;100.00
788;BME280;16074;42.708;23.312;2023-10-31T04:30:15;140695.88;;;9.88;100.00
788;BME280;16074;42.708;23.312;2023-10-31T04:32:43;140706.69;;;9.93;100.00
788;BME280;16074;42.708;23.312;2023-10-31T04:35:12;140704.28;;;9.92;100.00
788;BME280;16074;42.708;23.312;2023-10-31T04:37:41;140689.84;;;9.86;100.00
788;BME280;16074;42.708;23.312;2023-10-31T04:40:12;140677.81;;;9.81;100.00
788;BME280;16074;42.708;23.312;2023-10-31T04:42:41;140687.44;;;9.85;100.00
788;BME280;16074;42.708;23.312;2023-10-31T04:45:10;140687.44;;;9.85;100.00
788;BME280;16074;42.708;23.312;2023-10-31T04:47:38;140677.81;;;9.81;100.00
788;BME280;16074;42.708;23.312;2023-10-31T04:50:07;140681.44;;;9.82;100.00
788;BME280;16074;42.708;23.312;2023-10-31T04:52:36;140663.34;;;9.75;100.00
788;BME280;16074;42.708;23.312;2023-10-31T04:55:05;140646.50;;;9.68;100.00
788;BME280;16074;42.708;23.312;2023-10-31T04:57:34;140671.81;;;9.78;100.00
788;BME280;16074;42.708;23.312;2023-10-31T05:00:03;140662.19;;;9.74;100.00
788;BME280;16074;42.708;23.312;2023-10-31T05:02:33;140648.91;;;9.69;100.00
788;BME280;16074;42.708;23.312;2023-10-31T05:05:02;140663.34;;;9.75;100.00
788;BME280;16074;42.708;23.312;2023-10-31T05:07:31;140679.03;;;9.81;100.00
788;BME280;16074;42.708;23.312;2023-10-31T05:10:00;140681.44;;;9.82;100.00
788;BME280;16074;42.708;23.312;2023-10-31T05:12:28;140698.28;;;9.89;100.00
788;BME280;16074;42.708;23.312;2023-10-31T05:14:58;140703.09;;;9.91;100.00
788;BME280;16074;42.708;23.312;2023-10-31T05:17:26;140709.09;;;9.94;100.00
788;BME280;16074;42.708;23.312;2023-10-31T05:19:54;140732.00;;;10.03;100.00
788;BME280;16074;42.708;23.312;2023-10-31T05:22:22;140741.63;;;10.07;100.00
788;BME280;16074;42.708;23.312;2023-10-31T05:24:52;140752.47;;;10.12;100.00
788;BME280;16074;42.708;23.312;2023-10-31T05:27:20;140764.53;;;10.17;100.00
788;BME280;16074;42.708;23.312;2023-10-31T05:29:49;140760.88;;;10.15;100.00
788;BME280;16074;42.708;23.312;2023-10-31T05:32:18;140783.75;;;10.25;100.00
788;BME280;16074;42.708;23.312;2023-10-31T05:34:47;140781.34;;;10.24;100.00
788;BME280;16074;42.708;23.312;2023-10-31T05:37:15;140774.09;;;10.21;100.00
788;BME280;16074;42.708;23.312;2023-10-31T05:39:43;140768.09;;;10.18;100.00
788;BME280;16074;42.708;23.312;2023-10-31T05:42:11;140800.59;;;10.32;100.00
788;BME280;16074;42.708;23.312;2023-10-31T05:44:39;140809.06;;;10.35;100.00
788;BME280;16074;42.708;23.312;2023-10-31T05:47:08;140829.50;;;10.44;100.00
788;BME280;16074;42.708;23.312;2023-10-31T05:49:39;140858.41;;;10.56;100.00
788;BME280;16074;42.708;23.312;2023-10-31T05:52:07;140876.44;;;10.63;100.00
788;BME280;16074;42.708;23.312;2023-10-31T05:54:35;140899.38;;;10.72;100.00
788;BME280;16074;42.708;23.312;2023-10-31T05:57:04;140942.69;;;10.90;100.00
788;BME280;16074;42.708;23.312;2023-10-31T05:59:32;140989.66;;;11.10;100.00
788;BME280;16074;42.708;23.312;2023-10-31T06:02:00;141030.63;;;11.27;100.00
788;BME280;16074;42.708;23.312;2023-10-31T06:04:29;141058.34;;;11.38;100.00
788;BME280;16074;42.708;23.312;2023-10-31T06:06:58;141104.19;;;11.57;100.00
788;BME280;16074;42.708;23.312;2023-10-31T06:09:26;141152.44;;;11.77;100.00
788;BME280;16074;42.708;23.312;2023-10-31T06:11:55;141154.84;;;11.78;100.00
788;BME280;16074;42.708;23.312;2023-10-31T06:14:23;141197.03;;;11.95;100.00
788;BME280;16074;42.708;23.312;2023-10-31T06:16:52;141279.00;;;12.29;100.00
788;BME280;16074;42.708;23.312;2023-10-31T06:19:21;141332.09;;;12.51;100.00
788;BME280;16074;42.708;23.312;2023-10-31T06:21:49;141403.28;;;12.81;100.00
788;BME280;16074;42.708;23.312;2023-10-31T06:24:19;141468.47;;;13.07;100.00
788;BME280;16074;42.708;23.312;2023-10-31T06:26:47;141567.47;;;13.48;100.00
788;BME280;16074;42.708;23.312;2023-10-31T06:29:15;141626.63;;;13.73;100.00
788;BME280;16074;42.708;23.312;2023-10-31T06:32:04;141722.06;;;14.12;100.00
788;BME280;16074;42.708;23.312;2023-10-31T06:34:33;141784.91;;;14.38;100.00
788;BME280;16074;42.708;23.312;2023-10-31T06:37:01;141828.44;;;14.56;100.00
788;BME280;16074;42.708;23.312;2023-10-31T06:39:31;141834.47;;;14.58;99.65
788;BME280;16074;42.708;23.312;2023-10-31T06:42:00;141856.22;;;14.67;98.45
788;BME280;16074;42.708;23.312;2023-10-31T06:44:28;141955.34;;;15.08;95.95
788;BME280;16074;42.708;23.312;2023-10-31T06:46:56;141996.47;;;15.25;92.17
788;BME280;16074;42.708;23.312;2023-10-31T06:49:25;142088.41;;;15.63;91.52
788;BME280;16074;42.708;23.312;2023-10-31T06:51:54;142153.78;;;15.90;87.58
788;BME280;16074;42.708;23.312;2023-10-31T06:54:22;142220.34;;;16.17;85.73
788;BME280;16074;42.708;23.312;2023-10-31T06:56:54;142259.13;;;16.33;83.75
788;BME280;16074;42.708;23.312;2023-10-31T06:59:23;142385.03;;;16.85;80.87
788;BME280;16074;42.708;23.312;2023-10-31T07:01:51;142449.22;;;17.11;78.79
788;BME280;16074;42.708;23.312;2023-10-31T07:04:19;142354.72;;;16.73;80.98
788;BME280;16074;42.708;23.312;2023-10-31T07:06:49;142457.69;;;17.15;79.16
788;BME280;16074;42.708;23.312;2023-10-31T07:09:23;142398.34;;;16.90;79.67
788;BME280;16074;42.708;23.312;2023-10-31T07:11:54;142483.16;;;17.25;78.18
788;BME280;16074;42.708;23.312;2023-10-31T07:14:25;142612.84;;;17.79;74.91
788;BME280;16074;42.708;23.312;2023-10-31T07:16:53;142668.63;;;18.01;73.57
788;BME280;16074;42.708;23.312;2023-10-31T07:19:21;142723.16;;;18.24;70.42
788;BME280;16074;42.708;23.312;2023-10-31T07:21:50;142770.50;;;18.43;69.16
788;BME280;16074;42.708;23.312;2023-10-31T07:24:18;142827.50;;;18.67;67.08
788;BME280;16074;42.708;23.312;2023-10-31T07:26:47;142903.94;;;18.98;65.01
788;BME280;16074;42.708;23.312;2023-10-31T07:29:16;142957.38;;;19.20;63.27
788;BME280;16074;42.708;23.312;2023-10-31T07:31:44;142969.53;;;19.25;61.87
788;BME280;16074;42.708;23.312;2023-10-31T07:34:13;142848.09;;;18.75;62.90
788;BME280;16074;42.708;23.312;2023-10-31T07:36:42;142886.94;;;18.91;64.21
788;BME280;16074;42.708;23.312;2023-10-31T07:39:10;142982.84;;;19.30;61.88
788;BME280;16074;42.708;23.312;2023-10-31T07:41:39;143043.53;;;19.55;59.78
788;BME280;16074;42.708;23.312;2023-10-31T07:44:09;143087.25;;;19.73;59.09
788;BME280;16074;42.708;23.312;2023-10-31T07:46:39;143167.44;;;20.06;57.19
788;BME280;16074;42.708;23.312;2023-10-31T07:49:07;143037.47;;;19.53;59.58
788;BME280;16074;42.708;23.312;2023-10-31T07:51:36;142950.09;;;19.17;61.63
788;BME280;16074;42.708;23.312;2023-10-31T07:54:04;142954.97;;;19.19;63.29
788;BME280;16074;42.708;23.312;2023-10-31T07:56:32;143052.03;;;19.59;61.56
788;BME280;16074;42.708;23.312;2023-10-31T07:59:01;143064.19;;;19.64;60.58
788;BME280;16074;42.708;23.312;2023-10-31T08:01:30;143116.38;;;19.85;60.87
788;BME280;16074;42.708;23.312;2023-10-31T08:03:59;143086.03;;;19.73;61.63
788;BME280;16074;42.708;23.312;2023-10-31T08:06:28;143111.53;;;19.83;62.23
788;BME280;16074;42.708;23.312;2023-10-31T08:08:57;143128.53;;;19.90;61.82
788;BME280;16074;42.708;23.312;2023-10-31T08:11:26;143273.09;;;20.49;59.62
788;BME280;16074;42.708;23.312;2023-10-31T08:13:54;143291.34;;;20.57;60.55
788;BME280;16074;42.708;23.312;2023-10-31T08:16:22;143311.97;;;20.65;59.82
788;BME280;16074;42.708;23.312;2023-10-31T08:18:51;143382.53;;;20.94;58.56
788;BME280;16074;42.708;23.312;2023-10-31T08:21:21;143389.78;;;20.97;57.94
788;BME280;16074;42.708;23.312;2023-10-31T08:23:49;143438.41;;;21.17;56.60
788;BME280;16074;42.708;23.312;2023-10-31T08:26:17;143506.53;;;21.45;54.71
788;BME280;16074;42.708;23.312;2023-10-31T08:28:46;143487.06;;;21.37;54.35
788;BME280;16074;42.708;23.312;2023-10-31T08:31:14;143450.59;;;21.22;55.02
788;BME280;16074;42.708;23.312;2023-10-31T08:33:42;143539.34;;;21.59;54.88
788;BME280;16074;42.708;23.312;2023-10-31T08:36:11;143568.59;;;21.71;54.46
788;BME280;16074;42.708;23.312;2023-10-31T08:38:40;143637.91;;;21.99;54.31
788;BME280;16074;42.708;23.312;2023-10-31T08:41:08;143709.69;;;22.28;53.95
788;BME280;16074;42.708;23.312;2023-10-31T08:43:37;143751.06;;;22.45;52.67
788;BME280;16074;42.708;23.312;2023-10-31T08:46:05;143729.22;;;22.36;52.76
788;BME280;16074;42.708;23.312;2023-10-31T08:48:34;143766.91;;;22.52;51.08
788;BME280;16074;42.708;23.312;2023-10-31T08:51:02;143792.47;;;22.62;50.75
788;BME280;16074;42.708;23.312;2023-10-31T08:53:30;143827.75;;;22.77;50.52
788;BME280;16074;42.708;23.312;2023-10-31T08:56:00;143853.34;;;22.87;51.34
788;BME280;16074;42.708;23.312;2023-10-31T08:58:29;143914.25;;;23.12;51.60
788;BME280;16074;42.708;23.312;2023-10-31T09:00:57;143950.78;;;23.27;50.42
788;BME280;16074;42.708;23.312;2023-10-31T09:03:25;144028.69;;;23.59;50.68
788;BME280;16074;42.708;23.312;2023-10-31T09:05:54;144086.00;;;23.82;48.29
788;BME280;16074;42.708;23.312;2023-10-31T09:08:25;144145.75;;;24.07;48.11
788;BME280;16074;42.708;23.312;2023-10-31T09:10:53;144168.88;;;24.16;46.58
788;BME280;16074;42.708;23.312;2023-10-31T09:13:23;144204.22;;;24.30;47.24
788;BME280;16074;42.708;23.312;2023-10-31T09:15:51;144244.41;;;24.47;46.83
788;BME280;16074;42.708;23.312;2023-10-31T09:18:20;144289.56;;;24.65;46.08
788;BME280;16074;42.708;23.312;2023-10-31T09:20:49;144345.66;;;24.88;45.84
788;BME280;16074;42.708;23.312;2023-10-31T09:23:17;144417.66;;;25.18;44.45
788;BME280;16074;42.708;23.312;2023-10-31T09:25:46;144461.59;;;25.36;44.17
788;BME280;16074;42.708;23.312;2023-10-31T09:28:14;144472.53;;;25.40;43.47
788;BME280;16074;42.708;23.312;2023-10-31T09:30:44;144400.53;;;25.11;45.36
788;BME280;16074;42.708;23.312;2023-10-31T09:33:13;144510.34;;;25.55;43.10
788;BME280;16074;42.708;23.312;2023-10-31T09:35:41;144510.34;;;25.55;41.93
788;BME280;16074;42.708;23.312;2023-10-31T09:38:10;144504.28;;;25.53;42.71
788;BME280;16074;42.708;23.312;2023-10-31T09:40:38;144514.03;;;25.57;43.19
788;BME280;16074;42.708;23.312;2023-10-31T09:43:07;144554.28;;;25.73;43.22
788;BME280;16074;42.708;23.312;2023-10-31T09:45:36;144595.81;;;25.90;42.31
788;BME280;16074;42.708;23.312;2023-10-31T09:48:06;144564.03;;;25.77;42.57
788;BME280;16074;42.708;23.312;2023-10-31T09:50:35;144611.69;;;25.97;42.00
788;BME280;16074;42.708;23.312;2023-10-31T09:53:05;144630.00;;;26.04;42.46
788;BME280;16074;42.708;23.312;2023-10-31T09:55:34;144694.69;;;26.31;41.58
788;BME280;16074;42.708;23.312;2023-10-31T09:58:03;144717.88;;;26.40;41.14
788;BME280;16074;42.708;23.312;2023-10-31T10:00:32;144797.28;;;26.73;40.75
788;BME280;16074;42.708;23.312;2023-10-31T10:03:00;144824.16;;;26.83;40.70
788;BME280;16074;42.708;23.312;2023-10-31T10:05:31;144893.84;;;27.12;39.79
788;BME280;16074;42.708;23.312;2023-10-31T10:07:59;144923.09;;;27.24;39.09
788;BME280;16074;42.708;23.312;2023-10-31T10:10:27;144975.69;;;27.45;38.50
788;BME280;16074;42.708;23.312;2023-10-31T10:12:58;144989.09;;;27.51;38.45
788;BME280;16074;42.708;23.312;2023-10-31T10:15:29;145011.09;;;27.60;38.20
788;BME280;16074;42.708;23.312;2023-10-31T10:17:58;144989.09;;;27.51;38.58
788;BME280;16074;42.708;23.312;2023-10-31T10:20:26;145007.41;;;27.58;38.57
788;BME280;16074;42.708;23.312;2023-10-31T10:23:03;144998.88;;;27.55;38.39
788;BME280;16074;42.708;23.312;2023-10-31T10:25:32;144962.22;;;27.40;38.15
788;BME280;16074;42.708;23.312;2023-10-31T10:28:09;144958.56;;;27.38;38.18
788;BME280;16074;42.708;23.312;2023-10-31T10:30:39;144931.69;;;27.27;37.77
788;BME280;16074;42.708;23.312;2023-10-31T10:33:08;144897.47;;;27.13;38.26
788;BME280;16074;42.708;23.312;2023-10-31T10:35:36;144829.06;;;26.85;38.48
788;BME280;16074;42.708;23.312;2023-10-31T10:38:09;144804.63;;;26.75;39.01
788;BME280;16074;42.708;23.312;2023-10-31T10:40:39;144819.28;;;26.81;38.87
788;BME280;16074;42.708;23.312;2023-10-31T10:43:12;144807.06;;;26.76;38.42
788;BME280;16074;42.708;23.312;2023-10-31T10:45:42;144714.19;;;26.39;38.95
788;BME280;16074;42.708;23.312;2023-10-31T10:48:13;144661.72;;;26.17;38.61
788;BME280;16074;42.708;23.312;2023-10-31T10:50:50;144631.22;;;26.05;38.78
788;BME280;16074;42.708;23.312;2023-10-31T10:53:23;144639.72;;;26.08;38.98
788;BME280;16074;42.708;23.312;2023-10-31T10:55:56;144609.22;;;25.96;39.27
788;BME280;16074;42.708;23.312;2023-10-31T10:58:34;144653.19;;;26.14;38.93
788;BME280;16074;42.708;23.312;2023-10-31T11:01:05;144686.13;;;26.27;39.12
788;BME280;16074;42.708;23.312;2023-10-31T11:03:34;144720.31;;;26.41;38.19
788;BME280;16074;42.708;23.312;2023-10-31T11:06:03;144739.91;;;26.49;37.95
788;BME280;16074;42.708;23.312;2023-10-31T11:08:34;144747.25;;;26.52;37.78
788;BME280;16074;42.708;23.312;2023-10-31T11:11:04;144725.22;;;26.43;37.67
788;BME280;16074;42.708;23.312;2023-10-31T11:13:33;144741.09;;;26.50;37.40
788;BME280;16074;42.708;23.312;2023-10-31T11:16:09;144714.19;;;26.39;37.25
788;BME280;16074;42.708;23.312;2023-10-31T11:18:40;144708.09;;;26.36;36.80
788;BME280;16074;42.708;23.312;2023-10-31T11:21:08;144682.50;;;26.26;37.12
788;BME280;16074;42.708;23.312;2023-10-31T11:23:39;144670.28;;;26.21;36.54
788;BME280;16074;42.708;23.312;2023-10-31T11:26:08;144664.16;;;26.18;35.82
788;BME280;16074;42.708;23.312;2023-10-31T11:28:37;144649.50;;;26.12;36.44
788;BME280;16074;42.708;23.312;2023-10-31T11:31:08;144651.94;;;26.13;36.26
788;BME280;16074;42.708;23.312;2023-10-31T11:33:39;144594.59;;;25.90;35.45
788;BME280;16074;42.708;23.312;2023-10-31T11:36:10;144587.25;;;25.87;35.22
788;BME280;16074;42.708;23.312;2023-10-31T11:38:40;144532.31;;;25.64;35.50
788;BME280;16074;42.708;23.312;2023-10-31T11:41:10;144481.09;;;25.44;35.34
788;BME280;16074;42.708;23.312;2023-10-31T11:43:55;144442.06;;;25.28;35.49
788;BME280;16074;42.708;23.312;2023-10-31T11:46:24;144431.06;;;25.23;35.97
788;BME280;16074;42.708;23.312;2023-10-31T11:48:53;144461.59;;;25.36;35.23
788;BME280;16074;42.708;23.312;2023-10-31T11:51:23;144444.50;;;25.29;35.87
788;BME280;16074;42.708;23.312;2023-10-31T11:53:56;144415.22;;;25.17;36.00
788;BME280;16074;42.708;23.312;2023-10-31T11:56:24;144407.84;;;25.14;35.96
788;BME280;16074;42.708;23.312;2023-10-31T11:58:57;144365.19;;;24.96;36.45
788;BME280;16074;42.708;23.312;2023-10-31T12:01:26;144345.66;;;24.88;36.56
788;BME280;16074;42.708;23.312;2023-10-31T12:03:54;144338.34;;;24.85;37.32
788;BME280;16074;42.708;23.312;2023-10-31T12:06:23;144306.63;;;24.72;37.30
788;BME280;16074;42.708;23.312;2023-10-31T12:08:52;144309.06;;;24.73;36.98
788;BME280;16074;42.708;23.312;2023-10-31T12:11:23;144321.25;;;24.78;37.20
788;BME280;16074;42.708;23.312;2023-10-31T12:13:53;144288.38;;;24.65;37.20
788;BME280;16074;42.708;23.312;2023-10-31T12:16:24;144311.50;;;24.74;37.55
788;BME280;16074;42.708;23.312;2023-10-31T12:18:57;144312.75;;;24.75;37.89
788;BME280;16074;42.708;23.312;2023-10-31T12:21:36;144294.44;;;24.67;37.38
788;BME280;16074;42.708;23.312;2023-10-31T12:24:09;144317.63;;;24.77;37.21
788;BME280;16074;42.708;23.312;2023-10-31T12:26:38;144313.94;;;24.75;37.82
788;BME280;16074;42.708;23.312;2023-10-31T12:29:11;144346.91;;;24.89;37.49
788;BME280;16074;42.708;23.312;2023-10-31T12:31:42;144363.94;;;24.96;37.54
788;BME280;16074;42.708;23.312;2023-10-31T12:34:11;144427.41;;;25.22;37.21
788;BME280;16074;42.708;23.312;2023-10-31T12:36:39;144486.00;;;25.46;37.19
788;BME280;16074;42.708;23.312;2023-10-31T12:39:11;144553.09;;;25.73;36.87
788;BME280;16074;42.708;23.312;2023-10-31T12:41:40;144598.28;;;25.91;37.58
788;BME280;16074;42.708;23.312;2023-10-31T12:44:09;144659.28;;;26.16;37.53
788;BME280;16074;42.708;23.312;2023-10-31T12:46:39;144699.59;;;26.33;37.29
788;BME280;16074;42.708;23.312;2023-10-31T12:49:11;144723.97;;;26.43;36.59
788;BME280;16074;42.708;23.312;2023-10-31T12:51:55;144730.16;;;26.45;36.98
788;BME280;16074;42.708;23.312;2023-10-31T12:54:32;144693.47;;;26.30;37.07
788;BME280;16074;42.708;23.312;2023-10-31T12:57:02;144671.47;;;26.21;37.58
788;BME280;16074;42.708;23.312;2023-10-31T12:59:32;144647.06;;;26.11;37.41
788;BME280;16074;42.708;23.312;2023-10-31T13:02:00;144471.34;;;25.40;38.43
788;BME280;16074;42.708;23.312;2023-10-31T13:04:31;144526.22;;;25.62;37.83
788;BME280;16074;42.708;23.312;2023-10-31T13:07:05;144495.75;;;25.49;38.42